Terminal Aerodrome Forecast
Issued by NWS Atlanta, GA

Home | Current Version | Previous Version | Text Only | Print | Product List | Glossary On
Versions: 1 2 3 4 5 6 7 8 9 10 11 12 13 14 15 16 17 18 19 20 21 22
000
FTUS42 KFFC 061125
TAFMCN
TAF
KMCN 061125Z 0612/0712 07008KT 4SM -RA BR OVC004
     FM061500 21008KT 5SM -RA BR OVC015
     FM061700 25011G18KT P6SM VCSH BKN025
     FM061900 26010G18KT P6SM BKN035
     FM062200 29008KT P6SM SCT040
     FM070300 30004KT P6SM FEW250=

USA.gov is the U.S. government's official web portal to all federal, state and local government web resources and services.